createdAt,value
2018-09-27T00:01:35.116Z,102272.41
2018-09-27T00:04:03.196Z,102277.97
2018-09-27T00:06:31.292Z,102280.53
2018-09-27T00:08:59.415Z,102285.36
2018-09-27T00:11:27.512Z,102284.94
2018-09-27T00:13:55.617Z,102282.17
2018-09-27T00:16:23.703Z,102279.35
2018-09-27T00:18:51.791Z,102275.88
2018-09-27T00:21:19.866Z,102278.07
2018-09-27T00:23:47.940Z,102284.80
2018-09-27T00:26:16.012Z,102269.47
2018-09-27T00:28:44.087Z,102267.18
2018-09-27T00:31:12.163Z,102265.36
2018-09-27T00:33:40.239Z,102261.00
2018-09-27T00:36:08.328Z,102269.59
2018-09-27T00:38:36.473Z,102262.09
2018-09-27T00:41:04.629Z,102263.42
2018-09-27T00:43:32.731Z,102263.77
2018-09-27T00:46:00.815Z,102264.20
2018-09-27T00:48:28.904Z,102270.46
2018-09-27T00:50:57.012Z,102269.12
2018-09-27T00:53:25.091Z,102260.78
2018-09-27T00:55:53.178Z,102254.27
2018-09-27T00:58:21.252Z,102254.05
2018-09-27T01:00:49.690Z,102252.94
2018-09-27T01:03:17.794Z,102250.64
2018-09-27T01:05:45.863Z,102248.95
2018-09-27T01:08:13.926Z,102237.84
2018-09-27T01:10:42.168Z,102237.83
2018-09-27T01:13:10.243Z,102233.41
2018-09-27T01:15:38.358Z,102245.60
2018-09-27T01:18:06.717Z,102243.81
2018-09-27T01:20:34.812Z,102245.38
2018-09-27T01:23:02.879Z,102240.33
2018-09-27T01:25:30.961Z,102249.88
2018-09-27T01:27:59.091Z,102256.23
2018-09-27T01:30:27.200Z,102249.48
2018-09-27T01:32:55.268Z,102248.16
2018-09-27T01:35:23.349Z,102243.70
2018-09-27T01:37:51.412Z,102240.67
2018-09-27T01:40:19.480Z,102236.34
2018-09-27T01:42:47.556Z,102231.04
2018-09-27T01:45:15.626Z,102230.05
2018-09-27T01:47:43.713Z,102221.86
2018-09-27T01:50:11.785Z,102223.56
2018-09-27T01:52:40.032Z,102216.66
2018-09-27T01:55:08.131Z,102211.58
2018-09-27T01:57:36.207Z,102206.14
2018-09-27T02:00:04.306Z,102207.23
2018-09-27T02:02:32.416Z,102206.28
2018-09-27T02:05:00.500Z,102213.16
2018-09-27T02:07:28.571Z,102213.89
2018-09-27T02:09:56.647Z,102216.91
2018-09-27T02:12:24.731Z,102207.50
2018-09-27T02:14:52.808Z,102208.09
2018-09-27T02:17:20.874Z,102202.78
2018-09-27T02:19:48.971Z,102199.66
2018-09-27T02:22:17.116Z,102200.25
2018-09-27T02:24:45.196Z,102206.41
2018-09-27T02:27:13.272Z,102202.44
2018-09-27T02:29:41.707Z,102198.70
2018-09-27T02:32:09.816Z,102195.32
2018-09-27T02:34:37.941Z,102191.11
2018-09-27T02:37:06.025Z,102180.45
2018-09-27T02:39:34.090Z,102184.94
2018-09-27T02:42:02.180Z,102191.83
2018-09-27T02:44:30.265Z,102184.94
2018-09-27T02:46:58.404Z,102190.38
2018-09-27T02:49:26.483Z,102183.14
2018-09-27T02:51:54.655Z,102179.27
2018-09-27T02:54:22.775Z,102181.92
2018-09-27T02:56:50.838Z,102188.66
2018-09-27T02:59:18.931Z,102186.61
2018-09-27T03:01:47.003Z,102177.77
2018-09-27T03:04:15.079Z,102176.95
2018-09-27T03:06:43.155Z,102171.29
2018-09-27T03:09:12.318Z,102175.27
2018-09-27T03:11:40.473Z,102178.38
2018-09-27T03:14:08.567Z,102180.58
2018-09-27T03:16:36.635Z,102186.01
2018-09-27T03:19:04.708Z,102183.61
2018-09-27T03:21:32.803Z,102187.22
2018-09-27T03:24:00.890Z,102181.38
2018-09-27T03:26:28.955Z,102174.70
2018-09-27T03:28:57.046Z,102175.94
2018-09-27T03:31:25.209Z,102178.72
2018-09-27T03:33:53.292Z,102176.67
2018-09-27T03:36:21.445Z,102184.25
2018-09-27T03:38:49.512Z,102177.90
2018-09-27T03:41:17.623Z,102173.09
2018-09-27T03:43:45.700Z,102179.37
2018-09-27T03:46:13.801Z,102176.59
2018-09-27T03:48:41.944Z,102172.56
2018-09-27T03:51:10.021Z,102171.49
2018-09-27T03:53:38.092Z,102169.06
2018-09-27T03:56:06.235Z,102168.46
2018-09-27T03:58:34.305Z,102170.73
2018-09-27T04:01:02.390Z,102165.33
2018-09-27T04:03:30.520Z,102161.83
2018-09-27T04:05:58.625Z,102153.88
2018-09-27T04:08:26.736Z,102152.41
2018-09-27T04:10:54.871Z,102150.11
2018-09-27T04:13:23.007Z,102153.39
2018-09-27T04:15:51.154Z,102148.53
2018-09-27T04:18:19.178Z,102147.33
2018-09-27T04:20:50.525Z,102149.51
2018-09-27T04:23:19.532Z,102150.84
2018-09-27T04:25:47.668Z,102157.69
2018-09-27T04:28:15.879Z,102161.19
2018-09-27T04:30:44.006Z,102150.84
2018-09-27T04:33:12.087Z,102153.80
2018-09-27T04:35:40.168Z,102149.00
2018-09-27T04:38:08.259Z,102151.40
2018-09-27T04:40:36.413Z,102143.69
2018-09-27T04:43:04.782Z,102149.59
2018-09-27T04:45:32.887Z,102146.17
2018-09-27T04:48:00.979Z,102141.47
2018-09-27T04:50:29.044Z,102147.95
2018-09-27T04:52:57.116Z,102145.22
2018-09-27T04:55:25.184Z,102141.38
2018-09-27T04:57:53.271Z,102145.96
2018-09-27T05:00:21.323Z,102139.34
2018-09-27T05:02:49.404Z,102149.07
2018-09-27T05:05:17.468Z,102153.48
2018-09-27T05:07:45.530Z,102153.39
2018-09-27T05:10:13.604Z,102152.66
2018-09-27T05:12:41.703Z,102150.09
2018-09-27T05:15:09.773Z,102153.59
2018-09-27T05:17:37.847Z,102149.34
2018-09-27T05:20:05.920Z,102143.66
2018-09-27T05:22:33.989Z,102142.11
2018-09-27T05:25:02.127Z,102143.20
2018-09-27T05:27:30.207Z,102143.24
2018-09-27T05:29:58.304Z,102137.22
2018-09-27T05:32:26.391Z,102135.77
2018-09-27T05:34:54.470Z,102136.95
2018-09-27T05:37:22.547Z,102145.05
2018-09-27T05:39:50.643Z,102142.53
2018-09-27T05:42:18.699Z,102143.13
2018-09-27T05:44:46.782Z,102150.95
2018-09-27T05:47:14.873Z,102153.13
2018-09-27T05:49:42.962Z,102148.22
2018-09-27T05:52:11.184Z,102149.47
2018-09-27T05:54:39.404Z,102158.63
2018-09-27T05:57:07.508Z,102161.02
2018-09-27T05:59:35.590Z,102157.77
2018-09-27T06:02:03.689Z,102152.63
2018-09-27T06:04:31.794Z,102150.11
2018-09-27T06:06:59.878Z,102148.44
2018-09-27T06:09:28.020Z,102151.27
2018-09-27T06:11:56.044Z,102144.63
2018-09-27T06:14:24.127Z,102148.25
2018-09-27T06:16:52.232Z,102145.83
2018-09-27T06:19:20.336Z,102148.25
2018-09-27T06:21:48.370Z,102151.63
2018-09-27T06:24:16.447Z,102145.22
2018-09-27T06:26:44.527Z,102149.09
2018-09-27T06:29:12.591Z,102144.59
2018-09-27T06:31:40.669Z,102147.76
2018-09-27T06:34:08.738Z,102154.73
2018-09-27T06:36:36.827Z,102148.59
2018-09-27T06:39:07.028Z,102150.26
2018-09-27T06:41:35.089Z,102150.23
2018-09-27T06:44:03.175Z,102146.13
2018-09-27T06:46:31.235Z,102143.69
2018-09-27T06:48:59.307Z,102146.66
2018-09-27T06:51:27.417Z,102142.89
2018-09-27T06:53:55.522Z,102138.73
2018-09-27T06:56:23.646Z,102142.21
2018-09-27T06:58:51.712Z,102142.98
2018-09-27T07:01:19.806Z,102134.20
2018-09-27T07:03:47.879Z,102136.77
2018-09-27T07:06:15.972Z,102138.38
2018-09-27T07:08:44.329Z,102131.15
2018-09-27T07:11:12.336Z,102133.73
2018-09-27T07:13:40.402Z,102131.81
2018-09-27T07:16:08.475Z,102132.78
2018-09-27T07:18:36.674Z,102129.66
2018-09-27T07:21:04.719Z,102125.74
2018-09-27T07:23:32.807Z,102125.14
2018-09-27T07:26:00.879Z,102119.77
2018-09-27T07:28:28.941Z,102113.11
2018-09-27T07:30:57.049Z,102110.39
2018-09-27T07:33:25.079Z,102112.06
2018-09-27T07:35:53.150Z,102119.02
2018-09-27T07:38:21.253Z,102120.83
2018-09-27T07:40:49.359Z,102122.33
2018-09-27T07:43:17.440Z,102127.02
2018-09-27T07:45:45.532Z,102125.59
2018-09-27T07:48:13.604Z,102120.50
2018-09-27T07:50:41.790Z,102116.05
2018-09-27T07:53:09.787Z,102118.29
2018-09-27T07:55:37.879Z,102118.02
2018-09-27T07:58:06.060Z,102113.06
2018-09-27T08:00:34.227Z,102114.18
2018-09-27T08:03:02.415Z,102108.00
2018-09-27T08:05:30.529Z,102109.11
2018-09-27T08:07:58.725Z,102111.03
2018-09-27T08:10:26.794Z,102107.46
2018-09-27T08:12:54.948Z,102106.38
2018-09-27T08:15:23.190Z,102105.87
2018-09-27T08:17:51.299Z,102102.55
2018-09-27T08:20:19.445Z,102103.12
2018-09-27T08:22:47.504Z,102095.18
2018-09-27T08:25:15.591Z,102091.13
2018-09-27T08:27:43.680Z,102089.25
2018-09-27T08:30:11.808Z,102094.87
2018-09-27T08:32:39.966Z,102096.08
2018-09-27T08:35:07.960Z,102098.00
2018-09-27T08:37:36.027Z,102091.84
2018-09-27T08:40:04.148Z,102086.90
2018-09-27T08:42:32.249Z,102080.96
2018-09-27T08:45:00.443Z,102081.47
2018-09-27T08:47:28.428Z,102087.76
2018-09-27T08:49:56.526Z,102079.25
2018-09-27T08:52:24.602Z,102082.14
2018-09-27T08:54:52.710Z,102074.34
2018-09-27T08:57:20.830Z,102071.88
2018-09-27T08:59:48.933Z,102071.42
2018-09-27T09:02:17.311Z,102067.89
2018-09-27T09:04:45.483Z,102060.39
2018-09-27T09:07:13.628Z,102054.20
2018-09-27T09:09:41.718Z,102053.89
2018-09-27T09:12:09.881Z,102052.39
2018-09-27T09:14:37.936Z,102053.05
2018-09-27T09:17:06.746Z,102045.50
2018-09-27T09:19:35.299Z,102045.49
2018-09-27T09:22:03.372Z,102042.16
2018-09-27T09:24:31.538Z,102037.97
2018-09-27T09:26:59.679Z,102034.59
2018-09-27T09:29:27.942Z,102029.86
2018-09-27T09:31:56.080Z,102024.27
2018-09-27T09:34:24.287Z,102021.20
2018-09-27T09:36:52.435Z,102016.77
2018-09-27T09:39:20.579Z,102019.06
2018-09-27T09:41:48.748Z,102017.16
2018-09-27T09:44:16.908Z,102015.03
2018-09-27T09:46:45.073Z,102011.66
2018-09-27T09:49:13.268Z,102006.69
2018-09-27T09:51:41.452Z,102006.09
2018-09-27T09:54:09.796Z,102003.23
2018-09-27T09:56:37.960Z,102001.31
2018-09-27T09:59:06.160Z,101988.95
2018-09-27T10:01:34.305Z,101989.94
2018-09-27T10:04:02.452Z,101983.16
2018-09-27T10:06:30.644Z,101983.32
2018-09-27T10:08:58.839Z,101983.44
2018-09-27T10:11:26.995Z,101979.02
2018-09-27T10:13:55.176Z,101973.63
2018-09-27T10:16:23.343Z,101968.43
2018-09-27T10:18:51.507Z,101958.58
2018-09-27T10:21:19.727Z,101955.58
2018-09-27T10:23:48.632Z,101951.95
2018-09-27T10:26:16.813Z,101946.02
2018-09-27T10:28:45.016Z,101945.85
2018-09-27T10:31:13.187Z,101945.33
2018-09-27T10:33:41.339Z,101940.60
2018-09-27T10:36:09.597Z,101938.92
2018-09-27T10:38:37.867Z,101940.98
2018-09-27T10:41:06.086Z,101942.83
2018-09-27T10:43:34.276Z,101934.12
2018-09-27T10:46:02.480Z,101930.70
2018-09-27T10:48:30.661Z,101925.73
2018-09-27T10:50:58.826Z,101921.73
2018-09-27T10:53:27.044Z,101916.28
2018-09-27T10:55:55.912Z,101923.85
2018-09-27T10:58:24.116Z,101918.86
2018-09-27T11:00:52.292Z,101918.25
2018-09-27T11:03:20.528Z,101916.31
2018-09-27T11:05:48.774Z,101914.30
2018-09-27T11:08:16.973Z,101899.16
2018-09-27T11:10:45.167Z,101898.53
2018-09-27T11:13:13.415Z,101895.46
2018-09-27T11:15:41.631Z,101890.79
2018-09-27T11:18:09.863Z,101891.31
2018-09-27T11:20:38.085Z,101882.81
2018-09-27T11:23:06.266Z,101876.17
2018-09-27T11:25:34.493Z,101874.32
2018-09-27T11:28:02.648Z,101871.20
2018-09-27T11:30:32.275Z,101868.82
2018-09-27T11:33:00.450Z,101862.23
2018-09-27T11:35:28.582Z,101863.07
2018-09-27T11:37:56.689Z,101850.47
2018-09-27T11:40:24.801Z,101849.30
2018-09-27T11:42:52.954Z,101840.65
2018-09-27T11:45:21.120Z,101842.39
2018-09-27T11:47:49.310Z,101838.33
2018-09-27T11:50:17.547Z,101825.70
2018-09-27T11:52:45.680Z,101826.48
2018-09-27T11:55:13.911Z,101814.80
2018-09-27T11:57:42.105Z,101810.33
2018-09-27T12:00:10.335Z,101794.98
2018-09-27T12:02:38.732Z,101796.55
2018-09-27T12:05:06.904Z,101797.78
2018-09-27T12:07:35.057Z,101793.53
2018-09-27T12:10:03.224Z,101786.95
2018-09-27T12:12:31.379Z,101771.34
2018-09-27T12:14:59.569Z,101771.64
2018-09-27T12:17:27.688Z,101764.86
2018-09-27T12:19:55.764Z,101758.11
2018-09-27T12:22:23.843Z,101757.50
2018-09-27T12:24:51.976Z,101745.13
2018-09-27T12:27:20.080Z,101743.47
2018-09-27T12:29:48.172Z,101735.84
2018-09-27T12:32:16.240Z,101727.00
2018-09-27T12:34:44.348Z,101727.97
2018-09-27T12:37:12.422Z,101727.50
2018-09-27T12:39:40.533Z,101722.53
2018-09-27T12:42:08.725Z,101718.00
2018-09-27T12:44:36.663Z,101714.62
2018-09-27T12:47:04.760Z,101705.84
2018-09-27T12:49:32.847Z,101706.22
2018-09-27T12:52:01.129Z,101703.30
2018-09-27T12:54:28.999Z,101695.20
2018-09-27T12:56:57.119Z,101687.95
2018-09-27T12:59:25.285Z,101686.98
2018-09-27T13:01:53.468Z,101677.03
2018-09-27T13:04:21.500Z,101665.24
2018-09-27T13:06:49.614Z,101660.56
2018-09-27T13:09:17.856Z,101660.56
2018-09-27T13:11:45.849Z,101651.33
2018-09-27T13:14:14.070Z,101653.32
2018-09-27T13:16:42.244Z,101640.33
2018-09-27T13:19:10.492Z,101637.25
2018-09-27T13:21:38.672Z,101625.94
2018-09-27T13:24:06.813Z,101624.51
2018-09-27T13:26:35.078Z,101612.63
2018-09-27T13:29:03.213Z,101609.53
2018-09-27T13:31:31.514Z,101607.98
2018-09-27T13:33:59.719Z,101599.13
2018-09-27T13:36:27.856Z,101593.42
2018-09-27T13:38:56.093Z,101586.63
2018-09-27T13:41:24.239Z,101583.66
2018-09-27T13:43:52.424Z,101581.80
2018-09-27T13:46:20.575Z,101574.82
2018-09-27T13:48:48.814Z,101568.78
2018-09-27T13:51:16.853Z,101562.63
2018-09-27T13:53:45.025Z,101556.06
2018-09-27T13:56:13.188Z,101559.13
2018-09-27T13:58:41.364Z,101551.22
2018-09-27T14:01:09.598Z,101550.00
2018-09-27T14:03:37.604Z,101540.37
2018-09-27T14:06:05.699Z,101540.72
2018-09-27T14:08:33.804Z,101535.22
2018-09-27T14:11:01.899Z,101532.54
2018-09-27T14:13:30.056Z,101531.47
2018-09-27T14:15:58.180Z,101520.03
2018-09-27T14:18:26.273Z,101516.73
2018-09-27T14:23:28.872Z,101509.48
2018-09-27T14:25:56.952Z,101518.45
2018-09-27T14:28:25.136Z,101510.72
2018-09-27T14:30:53.368Z,101507.06
2018-09-27T14:33:21.568Z,101510.30
2018-09-27T14:35:49.764Z,101505.63
2018-09-27T14:38:17.982Z,101498.05
2018-09-27T14:40:46.177Z,101491.68
2018-09-27T14:43:14.365Z,101499.35
2018-09-27T14:45:42.579Z,101492.61
2018-09-27T14:48:10.965Z,101484.23
2018-09-27T14:50:39.200Z,101475.66
2018-09-27T14:53:07.350Z,101474.14
2018-09-27T14:55:36.256Z,101464.69
2018-09-27T14:58:04.476Z,101468.02
2018-09-27T15:00:32.698Z,101460.59
2018-09-27T15:03:00.864Z,101457.03
2018-09-27T15:05:29.071Z,101453.78
2018-09-27T15:07:57.270Z,101454.52
2018-09-27T15:10:25.600Z,101450.66
2018-09-27T15:12:53.830Z,101439.28
2018-09-27T15:15:22.004Z,101433.92
2018-09-27T15:17:50.245Z,101440.20
2018-09-27T15:20:18.391Z,101428.33
2018-09-27T15:22:46.665Z,101433.06
2018-09-27T15:25:14.871Z,101420.91
2018-09-27T15:27:42.981Z,101423.64
2018-09-27T15:30:11.047Z,101421.10
2018-09-27T15:32:39.136Z,101413.83
2018-09-27T15:35:07.247Z,101422.55
2018-09-27T15:37:35.389Z,101410.30
2018-09-27T15:40:03.967Z,101412.16
2018-09-27T15:42:32.056Z,101409.75
2018-09-27T15:45:00.288Z,101402.72
2018-09-27T15:47:28.465Z,101390.23
2018-09-27T15:49:56.664Z,101396.03
2018-09-27T15:52:24.918Z,101395.38
2018-09-27T15:54:53.752Z,101393.18
2018-09-27T15:57:21.972Z,101394.95
2018-09-27T15:59:50.160Z,101397.36
2018-09-27T16:02:18.333Z,101394.30
2018-09-27T16:04:46.601Z,101387.36
2018-09-27T16:07:14.860Z,101373.48
2018-09-27T16:09:43.153Z,101381.84
2018-09-27T16:12:11.413Z,101382.11
2018-09-27T16:14:39.857Z,101376.84
2018-09-27T16:17:07.896Z,101376.03
2018-09-27T16:19:35.963Z,101368.14
2018-09-27T16:22:04.127Z,101374.17
2018-09-27T16:24:32.213Z,101365.91
2018-09-27T16:27:00.309Z,101367.88
2018-09-27T16:29:28.444Z,101360.38
2018-09-27T16:31:56.476Z,101347.45
2018-09-27T16:34:24.598Z,101351.76
2018-09-27T16:36:52.744Z,101347.77
2018-09-27T16:39:20.828Z,101345.57
2018-09-27T16:41:48.913Z,101347.62
2018-09-27T16:44:16.979Z,101349.72
2018-09-27T16:46:45.112Z,101346.94
2018-09-27T16:49:13.183Z,101346.31
2018-09-27T16:51:41.289Z,101347.06
2018-09-27T16:54:09.420Z,101347.50
2018-09-27T16:56:37.673Z,101340.61
2018-09-27T16:59:05.760Z,101339.95
2018-09-27T17:01:33.895Z,101338.37
2018-09-27T17:04:02.004Z,101331.03
2018-09-27T17:06:30.284Z,101338.42
2018-09-27T17:08:58.501Z,101335.53
2018-09-27T17:11:27.086Z,101335.08
2018-09-27T17:13:55.249Z,101328.58
2018-09-27T17:16:30.912Z,101332.66
2018-09-27T17:22:18.223Z,101327.20
2018-09-27T17:24:47.688Z,101323.62
2018-09-27T17:27:21.425Z,101321.45
2018-09-27T17:29:52.396Z,101327.66
2018-09-27T17:32:21.065Z,101322.88
2018-09-27T17:34:52.481Z,101316.47
2018-09-27T17:37:21.723Z,101320.48
2018-09-27T17:39:52.901Z,101324.05
2018-09-27T17:42:27.820Z,101317.92
2018-09-27T17:44:56.183Z,101316.57
2018-09-27T17:47:30.948Z,101319.48
2018-09-27T17:50:00.810Z,101324.33
2018-09-27T17:55:03.075Z,101322.83
2018-09-27T17:57:34.125Z,101322.57
2018-09-27T18:00:04.749Z,101321.73
2018-09-27T18:02:36.069Z,101327.22
2018-09-27T18:05:18.812Z,101326.02
2018-09-27T18:07:35.116Z,101316.28
2018-09-27T18:10:04.392Z,101321.86
2018-09-27T18:12:33.796Z,101322.03
2018-09-27T18:15:06.388Z,101325.44
2018-09-27T18:17:38.934Z,101322.83
2018-09-27T18:20:08.598Z,101321.20
2018-09-27T18:22:39.013Z,101314.44
2018-09-27T18:25:21.175Z,101314.72
2018-09-27T18:27:51.798Z,101315.73
2018-09-27T18:30:22.653Z,101319.84
2018-09-27T18:32:51.044Z,101316.22
2018-09-27T18:35:21.029Z,101317.39
2018-09-27T18:37:51.003Z,101314.17
2018-09-27T18:40:20.670Z,101319.38
2018-09-27T18:42:49.892Z,101309.22
2018-09-27T18:45:20.266Z,101315.58
2018-09-27T18:47:49.573Z,101319.71
2018-09-27T18:50:20.812Z,101314.47
2018-09-27T18:52:51.807Z,101311.34
2018-09-27T18:55:23.123Z,101304.55
2018-09-27T18:57:51.539Z,101312.30
2018-09-27T19:00:20.475Z,101305.20
2018-09-27T19:03:27.108Z,101304.30
2018-09-27T19:05:56.182Z,101304.14
2018-09-27T19:08:24.779Z,101303.44
2018-09-27T19:10:55.462Z,101295.63
2018-09-27T19:13:26.654Z,101294.54
2018-09-27T19:16:05.956Z,101298.88
2018-09-27T19:18:39.327Z,101287.30
2018-09-27T19:21:08.439Z,101284.17
2018-09-27T19:23:40.088Z,101284.19
2018-09-27T19:26:16.714Z,101282.92
2018-09-27T19:28:56.034Z,101280.05
2018-09-27T19:31:24.427Z,101277.91
2018-09-27T19:33:53.017Z,101283.19
2018-09-27T19:36:22.061Z,101280.46
2018-09-27T19:38:50.612Z,101285.38
2018-09-27T19:41:25.631Z,101280.49
2018-09-27T19:44:02.716Z,101278.61
2018-09-27T19:46:34.023Z,101285.09
2018-09-27T19:49:06.514Z,101280.19
2018-09-27T19:51:35.916Z,101272.84
2018-09-27T19:54:10.044Z,101270.11
2018-09-27T19:56:40.643Z,101270.45
2018-09-27T19:59:11.492Z,101271.99
2018-09-27T20:04:19.897Z,101268.56
2018-09-27T20:06:52.178Z,101270.71
2018-09-27T20:14:44.680Z,101273.73
2018-09-27T20:17:15.076Z,101266.46
2018-09-27T20:19:48.788Z,101282.57
2018-09-27T20:22:22.602Z,101277.06
2018-09-27T20:24:53.199Z,101293.36
2018-09-27T20:27:27.398Z,101292.55
2018-09-27T20:29:58.290Z,101290.59
2018-09-27T20:32:29.300Z,101281.86
2018-09-27T20:34:58.167Z,101283.02
2018-09-27T20:37:29.284Z,101286.38
2018-09-27T20:39:57.585Z,101284.73
2018-09-27T20:42:36.135Z,101285.75
2018-09-27T20:45:05.424Z,101286.28
2018-09-27T20:47:35.497Z,101282.14
2018-09-27T20:50:05.099Z,101277.67
2018-09-27T20:52:35.257Z,101277.80
2018-09-27T20:55:04.797Z,101273.84
2018-09-27T20:57:35.685Z,101275.70
2018-09-27T21:00:04.216Z,101270.72
2018-09-27T21:02:33.701Z,101276.57
2018-09-27T21:05:04.477Z,101271.06
2018-09-27T21:07:33.761Z,101269.56
2018-09-27T21:10:04.327Z,101268.80
2018-09-27T21:12:33.904Z,101269.68
2018-09-27T21:15:05.920Z,101268.87
2018-09-27T21:17:34.819Z,101268.69
2018-09-27T21:20:03.470Z,101266.92
2018-09-27T21:22:32.290Z,101257.91
2018-09-27T21:25:00.633Z,101258.94
2018-09-27T21:27:30.553Z,101261.52
2018-09-27T21:29:58.904Z,101256.28
2018-09-27T21:32:27.330Z,101249.44
2018-09-27T21:34:57.571Z,101248.10
2018-09-27T21:37:25.927Z,101260.59
2018-09-27T21:39:54.795Z,101253.32
2018-09-27T21:42:23.623Z,101253.86
2018-09-27T21:44:52.142Z,101255.19
2018-09-27T21:47:20.385Z,101252.70
2018-09-27T21:49:50.193Z,101253.41
2018-09-27T21:52:19.148Z,101248.88
2018-09-27T21:54:47.547Z,101247.57
2018-09-27T21:57:16.972Z,101249.53
2018-09-27T21:59:45.317Z,101249.41
2018-09-27T22:02:16.126Z,101246.75
2018-09-27T22:04:46.264Z,101239.73
2018-09-27T22:07:15.978Z,101242.57
2018-09-27T22:09:45.825Z,101247.23
2018-09-27T22:12:14.126Z,101249.08
2018-09-27T22:14:42.716Z,101250.94
2018-09-27T22:17:13.475Z,101250.45
2018-09-27T22:19:45.893Z,101242.59
2018-09-27T22:22:16.204Z,101248.94
2018-09-27T22:24:46.828Z,101247.61
2018-09-27T22:27:16.485Z,101252.10
2018-09-27T22:29:47.022Z,101240.43
2018-09-27T22:32:17.146Z,101240.59
2018-09-27T22:34:46.893Z,101240.42
2018-09-27T22:37:16.689Z,101232.56
2018-09-27T22:39:45.122Z,101231.23
2018-09-27T22:42:16.943Z,101229.58
2018-09-27T22:44:46.771Z,101227.09
2018-09-27T22:47:15.517Z,101224.08
2018-09-27T22:49:43.762Z,101224.94
2018-09-27T22:52:12.697Z,101220.25
2018-09-27T22:54:41.771Z,101219.77
2018-09-27T22:57:10.111Z,101216.74
2018-09-27T22:59:38.919Z,101221.23
2018-09-27T23:02:07.223Z,101217.23
2018-09-27T23:04:36.656Z,101214.75
2018-09-27T23:07:04.868Z,101213.58
2018-09-27T23:09:33.169Z,101206.91
2018-09-27T23:12:01.333Z,101205.22
2018-09-27T23:14:29.488Z,101203.22
2018-09-27T23:16:57.736Z,101203.58
2018-09-27T23:19:25.921Z,101205.40
2018-09-27T23:21:54.140Z,101203.72
2018-09-27T23:24:22.175Z,101195.57
2018-09-27T23:26:50.252Z,101201.05
2018-09-27T23:29:18.320Z,101199.71
2018-09-27T23:31:46.384Z,101201.39
2018-09-27T23:34:14.503Z,101202.55
2018-09-27T23:36:42.602Z,101204.55
2018-09-27T23:39:11.168Z,101193.70
2018-09-27T23:41:39.639Z,101197.39
2018-09-27T23:44:07.930Z,101197.87
2018-09-27T23:46:36.035Z,101197.20
2018-09-27T23:49:04.117Z,101193.86
2018-09-27T23:51:32.191Z,101200.54
2018-09-27T23:54:00.280Z,101196.72
2018-09-27T23:56:28.361Z,101204.55
2018-09-27T23:58:56.436Z,101206.05
